createdAt,value
2022-12-19T00:00:36.953Z,99675.84
2022-12-19T00:03:05.258Z,99662.88
2022-12-19T00:05:36.979Z,99673.25
2022-12-19T00:08:09.993Z,99654.97
2022-12-19T00:10:56.203Z,99660.19
2022-12-19T00:13:24.334Z,99651.56
2022-12-19T00:15:52.367Z,99670.47
2022-12-19T00:18:20.594Z,99677.31
2022-12-19T00:20:56.016Z,99666.13
2022-12-19T00:23:24.019Z,99674.84
2022-12-19T00:25:53.370Z,99648.00
2022-12-19T00:28:22.296Z,99641.81
2022-12-19T00:30:50.271Z,99580.53
2022-12-19T00:33:21.307Z,99643.41
2022-12-19T00:35:49.371Z,99617.44
2022-12-19T00:38:17.351Z,99640.81
2022-12-19T00:40:45.337Z,99621.72
2022-12-19T00:43:14.728Z,99619.19
2022-12-19T00:45:42.669Z,99646.78
2022-12-19T00:48:10.668Z,99653.72
2022-12-19T00:50:40.820Z,99644.19
2022-12-19T00:53:08.813Z,99642.31
2022-12-19T00:55:39.701Z,99634.56
2022-12-19T00:58:07.691Z,99627.66
2022-12-19T01:00:37.101Z,99605.09
2022-12-19T01:03:05.672Z,99637.03
2022-12-19T01:05:33.787Z,99637.88
2022-12-19T01:08:02.241Z,99624.16
2022-12-19T01:10:30.425Z,99594.75
2022-12-19T01:12:57.433Z,99638.72
2022-12-19T01:15:25.389Z,99625.84
2022-12-19T01:17:54.731Z,99649.16
2022-12-19T01:20:29.654Z,99643.91
2022-12-19T01:23:00.147Z,99641.19
2022-12-19T01:25:28.652Z,99629.19
2022-12-19T01:27:57.059Z,99592.94
2022-12-19T01:30:25.023Z,99643.78
2022-12-19T01:32:55.676Z,99582.63
2022-12-19T01:35:24.220Z,99643.78
2022-12-19T01:37:53.887Z,99649.81
2022-12-19T01:40:36.726Z,99640.28
2022-12-19T01:43:05.156Z,99628.28
2022-12-19T01:45:35.936Z,99635.91
2022-12-19T01:48:20.446Z,99644.50
2022-12-19T01:51:01.208Z,99651.41
2022-12-19T01:53:34.845Z,99655.78
2022-12-19T01:56:08.381Z,99662.63
2022-12-19T01:58:37.726Z,99667.84
2022-12-19T02:01:05.980Z,99659.09
2022-12-19T02:03:38.605Z,99659.94
2022-12-19T02:06:08.101Z,99652.25
2022-12-19T02:08:37.761Z,99654.75
2022-12-19T02:11:05.855Z,99656.56
2022-12-19T02:13:34.258Z,99646.13
2022-12-19T02:16:10.115Z,99654.75
2022-12-19T02:18:49.710Z,99660.72
2022-12-19T02:21:26.573Z,99658.13
2022-12-19T02:24:17.829Z,99657.22
2022-12-19T02:26:58.431Z,99661.50
2022-12-19T02:29:54.610Z,99665.00
2022-12-19T02:32:32.541Z,99660.63
2022-12-19T02:35:11.324Z,99667.50
2022-12-19T02:37:49.220Z,99631.09
2022-12-19T02:40:24.973Z,99636.34
2022-12-19T02:42:58.401Z,99646.59
2022-12-19T02:45:29.056Z,99637.03
2022-12-19T02:48:04.491Z,99592.31
2022-12-19T02:50:40.927Z,99634.34
2022-12-19T02:53:11.872Z,99638.72
2022-12-19T02:55:48.479Z,99630.91
2022-12-19T02:58:46.675Z,99619.44
2022-12-19T03:01:27.754Z,99620.28
2022-12-19T03:04:07.285Z,99605.47
2022-12-19T03:06:44.228Z,99608.00
2022-12-19T03:09:18.624Z,99603.69
2022-12-19T03:11:50.478Z,99591.44
2022-12-19T03:14:21.151Z,99583.75
2022-12-19T03:16:49.263Z,99589.69
2022-12-19T03:19:18.622Z,99564.56
2022-12-19T03:21:50.708Z,99593.88
2022-12-19T03:24:20.095Z,99597.34
2022-12-19T03:26:54.296Z,99584.38
2022-12-19T03:29:24.133Z,99591.31
2022-12-19T03:31:53.818Z,99575.59
2022-12-19T03:34:27.917Z,99573.75
2022-12-19T03:36:59.620Z,99585.00
2022-12-19T03:39:30.306Z,99566.72
2022-12-19T03:42:17.867Z,99586.72
2022-12-19T03:44:46.101Z,99573.72
2022-12-19T03:47:18.698Z,99590.25
2022-12-19T03:49:49.064Z,99596.31
2022-12-19T03:52:26.247Z,99565.31
2022-12-19T03:55:01.609Z,99610.28
2022-12-19T03:57:32.655Z,99588.66
2022-12-19T04:00:06.615Z,99601.59
2022-12-19T04:02:36.542Z,99576.53
2022-12-19T04:05:10.252Z,99606.75
2022-12-19T04:07:40.077Z,99601.44
2022-12-19T04:10:12.264Z,99604.13
2022-12-19T04:12:44.182Z,99597.91
2022-12-19T04:15:14.075Z,99604.88
2022-12-19T04:17:46.117Z,99595.28
2022-12-19T04:20:17.782Z,99601.38
2022-12-19T04:22:51.943Z,99540.16
2022-12-19T04:25:29.237Z,99590.00
2022-12-19T04:28:00.974Z,99580.47
2022-12-19T04:30:29.150Z,99585.84
2022-12-19T04:32:58.217Z,99559.88
2022-12-19T04:35:29.782Z,99596.88
2022-12-19T04:37:57.764Z,99582.06
2022-12-19T04:40:25.755Z,99587.31
2022-12-19T04:42:54.082Z,99569.28
2022-12-19T04:45:23.240Z,99598.72
2022-12-19T04:47:51.336Z,99590.88
2022-12-19T04:50:19.380Z,99580.56
2022-12-19T04:52:52.194Z,99589.88
2022-12-19T04:55:22.362Z,99591.66
2022-12-19T04:57:50.327Z,99579.44
2022-12-19T05:00:18.719Z,99567.38
2022-12-19T05:02:46.865Z,99584.75
2022-12-19T05:05:15.034Z,99545.03
2022-12-19T05:07:42.988Z,99567.47
2022-12-19T05:10:12.434Z,99572.44
2022-12-19T05:12:40.429Z,99575.03
2022-12-19T05:15:09.460Z,99568.94
2022-12-19T05:17:37.800Z,99555.00
2022-12-19T05:20:07.324Z,99549.81
2022-12-19T05:22:35.265Z,99559.38
2022-12-19T05:25:03.234Z,99565.38
2022-12-19T05:27:33.068Z,99556.72
2022-12-19T05:30:01.393Z,99554.91
2022-12-19T05:32:31.729Z,99566.19
2022-12-19T05:34:59.696Z,99522.81
2022-12-19T05:37:27.899Z,99528.81
2022-12-19T05:39:55.900Z,99545.16
2022-12-19T05:42:23.918Z,99559.03
2022-12-19T05:44:53.304Z,99565.16
2022-12-19T05:47:21.236Z,99575.56
2022-12-19T05:49:49.214Z,99564.34
2022-12-19T05:52:17.176Z,99562.50
2022-12-19T05:54:45.207Z,99531.53
2022-12-19T05:57:13.189Z,99575.66
2022-12-19T05:59:41.165Z,99560.91
2022-12-19T06:02:10.620Z,99537.66
2022-12-19T06:04:38.796Z,99516.91
2022-12-19T06:07:06.771Z,99536.66
2022-12-19T06:09:34.777Z,99547.84
2022-12-19T06:12:02.876Z,99538.34
2022-12-19T06:14:30.860Z,99532.28
2022-12-19T06:16:58.831Z,99539.91
2022-12-19T06:19:28.517Z,99532.91
2022-12-19T06:21:56.560Z,99528.59
2022-12-19T06:24:25.884Z,99535.50
2022-12-19T06:26:53.824Z,99512.22
2022-12-19T06:29:22.208Z,99538.28
2022-12-19T06:31:50.430Z,99545.13
2022-12-19T06:34:33.219Z,99512.19
2022-12-19T06:37:08.439Z,99500.00
2022-12-19T06:39:36.763Z,99527.59
2022-12-19T06:42:22.401Z,99538.75
2022-12-19T06:44:50.665Z,99532.69
2022-12-19T06:47:18.685Z,99537.09
2022-12-19T06:49:50.304Z,99526.66
2022-12-19T06:52:19.740Z,99536.25
2022-12-19T06:54:47.722Z,99530.09
2022-12-19T06:57:16.356Z,99507.75
2022-12-19T06:59:44.365Z,99524.03
2022-12-19T07:02:25.879Z,99524.97
2022-12-19T07:04:59.073Z,99537.16
2022-12-19T07:07:29.752Z,99535.50
2022-12-19T07:09:57.759Z,99523.41
2022-12-19T07:12:25.694Z,99527.75
2022-12-19T07:14:53.937Z,99531.97
2022-12-19T07:17:23.546Z,99538.22
2022-12-19T07:19:51.773Z,99541.84
2022-12-19T07:22:19.891Z,99540.91
2022-12-19T07:24:49.528Z,99562.56
2022-12-19T07:27:17.722Z,99563.44
2022-12-19T07:29:45.691Z,99562.59
2022-12-19T07:32:13.703Z,99561.72
2022-12-19T07:34:42.406Z,99564.31
2022-12-19T07:37:10.392Z,99523.09
2022-12-19T07:39:38.383Z,99577.56
2022-12-19T07:42:07.721Z,99531.72
2022-12-19T07:44:35.746Z,99521.72
2022-12-19T07:47:03.654Z,99580.69
2022-12-19T07:49:31.605Z,99582.69
2022-12-19T07:51:59.563Z,99596.34
2022-12-19T07:54:27.601Z,99593.94
2022-12-19T07:56:55.544Z,99586.16
2022-12-19T07:59:30.344Z,99583.41
2022-12-19T08:02:00.424Z,99592.13
2022-12-19T08:04:28.606Z,99589.44
2022-12-19T08:06:56.553Z,99582.41
2022-12-19T08:09:27.734Z,99576.38
2022-12-19T08:11:55.912Z,99597.25
2022-12-19T08:14:25.295Z,99592.78
2022-12-19T08:17:19.785Z,99576.09
2022-12-19T08:19:41.202Z,99564.22
2022-12-19T08:22:09.193Z,99551.16
2022-12-19T08:24:37.307Z,99568.16
2022-12-19T08:27:05.396Z,99580.28
2022-12-19T08:29:34.953Z,99582.88
2022-12-19T08:32:02.945Z,99582.03
2022-12-19T08:34:31.054Z,99582.81
2022-12-19T08:36:58.993Z,99585.69
2022-12-19T08:39:26.957Z,99582.22
2022-12-19T08:41:54.906Z,99577.53
2022-12-19T08:44:23.172Z,99550.75
2022-12-19T08:46:52.649Z,99540.34
2022-12-19T08:49:21.124Z,99562.50
2022-12-19T08:51:49.091Z,99574.63
2022-12-19T08:54:17.123Z,99579.97
2022-12-19T08:56:46.266Z,99597.13
2022-12-19T08:59:19.294Z,99598.81
2022-12-19T09:02:01.901Z,99586.38
2022-12-19T09:05:59.558Z,99606.41
2022-12-19T09:07:18.742Z,99608.97
2022-12-19T09:09:46.874Z,99600.59
2022-12-19T09:12:16.672Z,99623.72
2022-12-19T09:14:45.558Z,99617.63
2022-12-19T09:17:15.604Z,99610.38
2022-12-19T09:19:47.057Z,99611.25
2022-12-19T09:22:16.062Z,99602.19
2022-12-19T09:24:44.926Z,99607.31
2022-12-19T09:27:12.947Z,99510.06
2022-12-19T09:29:42.842Z,99582.97
2022-12-19T09:32:11.789Z,99590.69
2022-12-19T09:34:41.226Z,99582.06
2022-12-19T09:37:15.958Z,99555.50
2022-12-19T09:39:46.454Z,99571.56
2022-12-19T09:42:34.242Z,99559.19
2022-12-19T09:45:31.311Z,99549.41
2022-12-19T09:48:02.056Z,99551.69
2022-12-19T09:50:48.573Z,99550.88
2022-12-19T09:53:25.394Z,99552.56
2022-12-19T09:55:55.141Z,99539.63
2022-12-19T09:58:35.940Z,99537.75
2022-12-19T10:01:09.408Z,99528.91
2022-12-19T10:03:41.184Z,99521.59
2022-12-19T10:07:11.033Z,99530.66
2022-12-19T10:10:19.125Z,99544.94
2022-12-19T10:12:41.099Z,99547.63
2022-12-19T10:15:03.771Z,99538.59
2022-12-19T10:17:49.230Z,99539.06
2022-12-19T10:20:23.451Z,99525.84
2022-12-19T10:23:19.314Z,99529.81
2022-12-19T10:25:53.779Z,99521.00
2022-12-19T10:28:41.294Z,99532.19
2022-12-19T10:31:21.513Z,99522.69
2022-12-19T10:33:57.128Z,99536.44
2022-12-19T10:36:48.754Z,99533.69
2022-12-19T10:39:24.485Z,99510.47
2022-12-19T10:41:58.392Z,99506.94
2022-12-19T10:44:29.120Z,99517.53
2022-12-19T10:46:57.076Z,99506.16
2022-12-19T10:49:27.614Z,99519.09
2022-12-19T10:52:00.155Z,99515.31
2022-12-19T10:54:40.008Z,99510.41
2022-12-19T10:57:33.217Z,99497.13
2022-12-19T11:00:04.312Z,99490.97
2022-12-19T11:02:41.604Z,99478.63
2022-12-19T11:05:24.287Z,99484.41
2022-12-19T11:08:04.550Z,99491.56
2022-12-19T11:10:57.726Z,99479.13
2022-12-19T11:18:35.115Z,99482.59
2022-12-19T11:22:04.798Z,99457.25
2022-12-19T11:26:42.560Z,99463.31
2022-12-19T11:29:35.298Z,99473.69
2022-12-19T11:29:41.073Z,99457.28
2022-12-19T11:30:39.548Z,99462.53
2022-12-19T11:33:56.659Z,99461.34
2022-12-19T11:36:34.051Z,99452.16
2022-12-19T11:39:02.442Z,99450.03
2022-12-19T11:41:35.363Z,99405.47
2022-12-19T11:44:13.940Z,99436.91
2022-12-19T11:46:48.241Z,99453.16
2022-12-19T11:49:27.601Z,99421.75
2022-12-19T11:52:02.265Z,99442.94
2022-12-19T11:54:34.046Z,99426.59
2022-12-19T11:57:02.229Z,99426.16
2022-12-19T11:59:35.988Z,99422.72
2022-12-19T12:02:31.256Z,99424.84
2022-12-19T12:05:21.965Z,99415.97
2022-12-19T12:09:17.145Z,99429.59
2022-12-19T12:16:33.654Z,99426.41
2022-12-19T12:25:06.115Z,99414.41
2022-12-19T12:31:00.903Z,99414.88
2022-12-19T12:31:08.850Z,99382.31
2022-12-19T12:31:16.207Z,99362.16
2022-12-19T12:32:03.191Z,99406.31
2022-12-19T12:35:32.828Z,99381.28
2022-12-19T12:38:33.358Z,99394.78
2022-12-19T12:41:16.464Z,99371.47
2022-12-19T12:43:57.690Z,99360.53
2022-12-19T12:46:28.734Z,99380.16
2022-12-19T12:49:02.344Z,99396.78
2022-12-19T12:51:33.166Z,99388.09
2022-12-19T12:54:07.580Z,99396.69
2022-12-19T12:56:36.592Z,99372.25
2022-12-19T12:59:21.708Z,99387.28
2022-12-19T13:01:58.261Z,99385.09
2022-12-19T13:04:31.410Z,99402.72
2022-12-19T13:07:16.257Z,99404.63
2022-12-19T13:09:44.945Z,99364.97
2022-12-19T13:12:39.355Z,99398.59
2022-12-19T13:15:34.351Z,99390.59
2022-12-19T13:18:12.919Z,99387.63
2022-12-19T13:20:45.650Z,99389.41
2022-12-19T13:23:33.443Z,99415.94
2022-12-19T13:26:01.772Z,99399.28
2022-12-19T13:28:42.298Z,99420.19
2022-12-19T13:31:22.878Z,99410.06
2022-12-19T13:34:19.190Z,99412.41
2022-12-19T13:39:51.849Z,99415.66
2022-12-19T13:40:11.107Z,99401.13
2022-12-19T13:43:10.765Z,99406.06
2022-12-19T13:45:42.848Z,99405.72
2022-12-19T13:48:17.265Z,99396.53
2022-12-19T13:50:49.619Z,99400.19
2022-12-19T13:53:20.609Z,99403.84
2022-12-19T13:55:49.012Z,99407.63
2022-12-19T13:58:29.333Z,99391.94
2022-12-19T14:00:59.984Z,99397.88
2022-12-19T14:03:35.702Z,99395.69
2022-12-19T14:06:16.231Z,99400.19
2022-12-19T14:09:46.234Z,99397.88
2022-12-19T14:13:48.757Z,99418.25
2022-12-19T14:14:48.440Z,99416.47
2022-12-19T14:17:30.644Z,99411.03
2022-12-19T14:20:32.414Z,99352.97
2022-12-19T14:22:46.575Z,99401.63
2022-12-19T14:26:14.467Z,99407.88
2022-12-19T14:28:17.341Z,99410.66
2022-12-19T14:30:55.903Z,99400.50
2022-12-19T14:33:45.706Z,99376.41
2022-12-19T14:36:26.042Z,99384.31
2022-12-19T14:39:27.922Z,99374.94
2022-12-19T14:42:04.287Z,99404.69
2022-12-19T14:52:35.814Z,99325.03
2022-12-19T14:54:01.162Z,99408.53
2022-12-19T14:54:05.765Z,99358.56
2022-12-19T14:54:40.650Z,99399.75
2022-12-19T14:59:01.776Z,99397.22
2022-12-19T15:01:32.014Z,99403.06
2022-12-19T15:04:49.168Z,99409.31
2022-12-19T15:07:08.494Z,99410.50
2022-12-19T15:10:58.913Z,99409.34
2022-12-19T15:14:54.464Z,99401.03
2022-12-19T15:15:48.400Z,99411.81
2022-12-19T15:18:20.860Z,99383.59
2022-12-19T15:20:49.506Z,99411.28
2022-12-19T15:23:21.973Z,99402.69
2022-12-19T15:26:07.913Z,99389.22
2022-12-19T15:28:41.572Z,99368.03
2022-12-19T15:31:24.392Z,99401.47
2022-12-19T15:34:33.482Z,99396.81
2022-12-19T15:36:40.495Z,99381.63
2022-12-19T15:39:08.465Z,99360.84
2022-12-19T15:41:36.866Z,99381.66
2022-12-19T15:44:10.604Z,99367.66
2022-12-19T15:46:46.334Z,99351.09
2022-12-19T15:49:17.538Z,99354.13
2022-12-19T15:51:46.216Z,99373.31
2022-12-19T15:54:47.312Z,99394.69
2022-12-19T15:57:02.335Z,99341.16
2022-12-19T15:59:38.685Z,99389.50
2022-12-19T16:02:18.308Z,99368.97
2022-12-19T16:04:48.551Z,99387.00
2022-12-19T16:07:18.700Z,99361.31
2022-12-19T16:09:47.057Z,99371.19
2022-12-19T16:12:17.023Z,99385.97
2022-12-19T16:14:45.532Z,99372.31
2022-12-19T16:17:19.213Z,99377.53
2022-12-19T16:19:47.409Z,99323.38
2022-12-19T16:22:19.722Z,99356.50
2022-12-19T16:24:48.100Z,99366.75
2022-12-19T16:27:23.702Z,99353.66
2022-12-19T16:29:52.500Z,99374.56
2022-12-19T16:32:24.341Z,99372.75
2022-12-19T16:34:53.117Z,99369.63
2022-12-19T16:37:21.139Z,99366.56
2022-12-19T16:39:49.144Z,99362.28
2022-12-19T16:42:18.294Z,99368.56
2022-12-19T16:44:48.412Z,99323.47
2022-12-19T16:47:19.002Z,99375.28
2022-12-19T16:49:48.503Z,99375.16
2022-12-19T16:52:16.526Z,99362.44
2022-12-19T16:54:44.543Z,99369.53
2022-12-19T16:57:20.894Z,99376.28
2022-12-19T16:59:49.706Z,99378.22
2022-12-19T17:02:40.030Z,99368.53
2022-12-19T17:05:17.025Z,99370.97
2022-12-19T17:07:45.674Z,99377.81
2022-12-19T17:10:13.931Z,99375.06
2022-12-19T17:12:42.925Z,99382.69
2022-12-19T17:15:20.869Z,99383.50
2022-12-19T17:17:49.368Z,99375.91
2022-12-19T17:20:20.743Z,99369.31
2022-12-19T17:22:50.214Z,99388.22
2022-12-19T17:25:22.249Z,99386.41
2022-12-19T17:27:53.622Z,99386.28
2022-12-19T17:30:23.272Z,99342.41
2022-12-19T17:32:55.926Z,99387.94
2022-12-19T17:35:35.993Z,99376.94
2022-12-19T17:38:05.298Z,99376.19
2022-12-19T17:40:34.994Z,99386.31
2022-12-19T17:43:03.357Z,99387.13
2022-12-19T17:45:34.076Z,99360.56
2022-12-19T17:48:06.893Z,99369.41
2022-12-19T17:50:39.433Z,99379.41
2022-12-19T17:53:14.194Z,99378.78
2022-12-19T17:55:49.352Z,99390.13
2022-12-19T17:58:18.326Z,99386.88
2022-12-19T18:00:48.859Z,99380.47
2022-12-19T18:03:24.234Z,99383.72
2022-12-19T18:05:56.048Z,99378.69
2022-12-19T18:08:29.079Z,99377.28
2022-12-19T18:11:00.339Z,99373.25
2022-12-19T18:13:30.185Z,99352.97
2022-12-19T18:15:59.541Z,99373.94
2022-12-19T18:18:32.468Z,99366.50
2022-12-19T18:21:02.890Z,99367.34
2022-12-19T18:23:31.613Z,99367.66
2022-12-19T18:26:02.374Z,99370.44
2022-12-19T18:28:31.587Z,99372.75
2022-12-19T18:31:02.299Z,99381.84
2022-12-19T18:33:35.998Z,99367.66
2022-12-19T18:36:06.954Z,99351.06
2022-12-19T18:38:35.920Z,99367.84
2022-12-19T18:41:04.030Z,99348.09
2022-12-19T18:43:32.772Z,99367.91
2022-12-19T18:46:00.843Z,99354.25
2022-12-19T18:48:31.864Z,99369.25
2022-12-19T18:51:01.555Z,99355.91
2022-12-19T18:53:35.217Z,99337.19
2022-12-19T18:56:05.402Z,99351.91
2022-12-19T18:58:34.008Z,99361.38
2022-12-19T19:01:03.317Z,99349.50
2022-12-19T19:03:35.501Z,99333.19
2022-12-19T19:06:05.521Z,99358.34
2022-12-19T19:08:35.900Z,99353.44
2022-12-19T19:11:04.034Z,99359.00
2022-12-19T19:13:32.187Z,99358.41
2022-12-19T19:16:01.923Z,99355.50
2022-12-19T19:18:33.139Z,99356.41
2022-12-19T19:21:02.516Z,99335.81
2022-12-19T19:23:36.691Z,99345.03
2022-12-19T19:26:04.941Z,99337.59
2022-12-19T19:28:32.932Z,99338.03
2022-12-19T19:31:02.361Z,99336.00
2022-12-19T19:33:34.635Z,99320.47
2022-12-19T19:36:12.020Z,99303.28
2022-12-19T19:38:43.783Z,99331.97
2022-12-19T19:41:12.726Z,99327.53
2022-12-19T19:43:41.393Z,99328.22
2022-12-19T19:46:12.100Z,99257.38
2022-12-19T19:48:41.443Z,99288.28
2022-12-19T19:51:10.030Z,99323.78
2022-12-19T19:53:38.000Z,99322.69
2022-12-19T19:56:08.143Z,99319.19
2022-12-19T19:58:36.278Z,99329.03
2022-12-19T20:01:08.917Z,99321.47
2022-12-19T20:03:37.198Z,99312.75
2022-12-19T20:06:05.701Z,99333.38
2022-12-19T20:08:39.823Z,99334.56
2022-12-19T20:11:11.065Z,99291.69
2022-12-19T20:13:39.723Z,99332.06
2022-12-19T20:16:09.709Z,99333.81
2022-12-19T20:18:38.727Z,99333.69
2022-12-19T20:21:12.685Z,99349.03
2022-12-19T20:23:42.632Z,99334.69
2022-12-19T20:26:13.330Z,99320.69
2022-12-19T20:28:48.382Z,99347.56
2022-12-19T20:31:23.689Z,99367.47
2022-12-19T20:33:53.241Z,99370.94
2022-12-19T20:36:21.257Z,99366.59
2022-12-19T20:38:50.296Z,99363.19
2022-12-19T20:41:20.426Z,99332.91
2022-12-19T20:43:49.507Z,99362.59
2022-12-19T20:46:20.826Z,99366.69
2022-12-19T20:48:50.047Z,99356.59
2022-12-19T20:51:20.690Z,99351.56
2022-12-19T20:53:50.164Z,99356.81
2022-12-19T20:56:30.442Z,99338.06
2022-12-19T20:59:00.277Z,99327.44
2022-12-19T21:01:28.385Z,99322.91
2022-12-19T21:03:58.519Z,99311.09
2022-12-19T21:06:28.407Z,99335.28
2022-12-19T21:09:02.522Z,99338.84
2022-12-19T21:11:35.705Z,99291.84
2022-12-19T21:14:05.869Z,99339.53
2022-12-19T21:16:34.933Z,99326.41
2022-12-19T21:19:03.043Z,99343.97
2022-12-19T21:21:32.170Z,99342.28
2022-12-19T21:24:02.275Z,99351.72
2022-12-19T21:26:34.937Z,99357.41
2022-12-19T21:29:02.940Z,99353.56
2022-12-19T21:31:33.522Z,99349.75
2022-12-19T21:34:03.421Z,99319.41
2022-12-19T21:36:33.208Z,99342.00
2022-12-19T21:39:04.064Z,99345.78
2022-12-19T21:41:36.329Z,99355.84
2022-12-19T21:44:06.323Z,99349.53
2022-12-19T21:46:40.774Z,99351.63
2022-12-19T21:49:16.531Z,99356.28
2022-12-19T21:51:45.114Z,99361.84
2022-12-19T21:54:13.287Z,99319.84
2022-12-19T21:56:42.983Z,99337.97
2022-12-19T21:59:14.767Z,99329.03
2022-12-19T22:01:47.613Z,99346.84
2022-12-19T22:04:21.397Z,99347.56
2022-12-19T22:06:51.423Z,99342.69
2022-12-19T22:09:22.195Z,99348.81
2022-12-19T22:11:51.940Z,99344.94
2022-12-19T22:14:22.632Z,99342.88
2022-12-19T22:16:51.800Z,99331.88
2022-12-19T22:19:20.702Z,99344.75
2022-12-19T22:21:54.321Z,99316.53
2022-12-19T22:24:25.646Z,99340.16
2022-12-19T22:26:58.549Z,99321.72
2022-12-19T22:29:31.002Z,99323.28
2022-12-19T22:32:01.796Z,99337.41
2022-12-19T22:34:31.092Z,99335.03
2022-12-19T22:37:05.132Z,99344.63
2022-12-19T22:39:35.459Z,99332.50
2022-12-19T22:42:07.011Z,99348.91
2022-12-19T22:44:35.108Z,99347.47
2022-12-19T22:47:04.666Z,99340.34
2022-12-19T22:49:32.716Z,99349.69
2022-12-19T22:52:04.113Z,99344.13
2022-12-19T22:54:32.146Z,99337.41
2022-12-19T22:57:00.931Z,99287.97
2022-12-19T22:59:30.321Z,99292.56
2022-12-19T23:01:59.664Z,99325.03
2022-12-19T23:04:27.894Z,99318.16
2022-12-19T23:06:55.894Z,99323.72
2022-12-19T23:09:24.216Z,99309.13
2022-12-19T23:11:52.197Z,99303.69
2022-12-19T23:14:21.177Z,99310.16
2022-12-19T23:16:50.765Z,99315.50
2022-12-19T23:19:19.693Z,99312.69
2022-12-19T23:21:47.759Z,99320.97
2022-12-19T23:24:16.032Z,99318.84
2022-12-19T23:26:44.194Z,99309.94
2022-12-19T23:29:14.279Z,99329.53
2022-12-19T23:31:43.905Z,99319.28
2022-12-19T23:34:14.035Z,99321.34
2022-12-19T23:39:30.355Z,99312.53
2022-12-19T23:41:58.324Z,99329.66
2022-12-19T23:44:26.362Z,99326.03
2022-12-19T23:47:00.852Z,99319.19
2022-12-19T23:49:32.709Z,99342.91
2022-12-19T23:52:00.772Z,99340.78
2022-12-19T23:54:28.809Z,99337.75
2022-12-19T23:56:56.772Z,99331.47
2022-12-19T23:59:25.668Z,99338.81
